Time;durP1;ratioP1;P1;durP2;ratioP2;P2;SDS_P1;SDS_P2;PMS_P1;PMS_P2;Temp;Humidity;BMP_temperature;BMP_pressure;BME280_temperature;BME280_humidity;BME280_pressure;Samples;Min_cycle;Max_cycle;Signal;HPM_P1;HPM_P2
2022/04/04 00:02:08;;;;;;;13.93;10.27;;;;;;;1.76;92.72;101948.16;5091599;28;20028;-78
2022/04/04 00:04:33;;;;;;;17.25;11.13;;;;;;;1.78;93.25;101950.72;5091058;28;20040;-76
2022/04/04 00:07:02;;;;;;;15.85;10.07;;;;;;;1.74;93.24;101942.09;5091388;28;20032;-75
2022/04/04 00:09:29;;;;;;;14.90;10.57;;;;;;;1.72;92.94;101932.59;5090455;28;20039;-75
2022/04/04 00:11:54;;;;;;;14.93;10.30;;;;;;;1.75;93.63;101925.44;5091402;28;20047;-76
2022/04/04 00:14:20;;;;;;;14.80;10.20;;;;;;;1.76;93.48;101921.91;5090730;28;20032;-76
2022/04/04 00:16:46;;;;;;;17.27;9.73;;;;;;;1.74;93.92;101913.22;5091365;28;20092;-76
2022/04/04 00:19:11;;;;;;;15.43;10.32;;;;;;;1.71;93.86;101912.50;5072489;28;20361;-77
2022/04/04 00:21:37;;;;;;;14.75;10.02;;;;;;;1.69;93.99;101914.31;5090818;28;20244;-75
2022/04/04 00:24:03;;;;;;;13.48;9.73;;;;;;;1.69;94.10;101909.09;5072492;28;20036;-75
2022/04/04 00:26:29;;;;;;;18.20;9.60;;;;;;;1.67;94.78;101900.38;5090634;28;20032;-75
2022/04/04 00:28:55;;;;;;;17.38;10.25;;;;;;;1.65;94.32;101900.44;5090987;28;20087;-75
2022/04/04 00:31:20;;;;;;;15.85;9.98;;;;;;;1.64;94.90;101895.25;5090295;28;20064;-75
2022/04/04 00:33:46;;;;;;;13.45;9.80;;;;;;;1.67;95.26;101897.75;5072456;28;20044;-76
2022/04/04 00:36:11;;;;;;;13.43;8.75;;;;;;;1.67;95.56;101888.16;5090957;28;20109;-76
2022/04/04 00:38:37;;;;;;;14.57;9.27;;;;;;;1.68;95.59;101886.38;5090357;28;20028;-76
2022/04/04 00:41:08;;;;;;;14.02;8.50;;;;;;;1.65;95.70;101889.94;5090610;28;20165;-76
2022/04/04 00:43:33;;;;;;;19.73;9.88;;;;;;;1.64;95.73;101882.13;5090732;28;20103;-75
2022/04/04 00:46:00;;;;;;;16.48;9.40;;;;;;;1.66;96.09;101873.31;5090677;28;20340;-75
2022/04/04 00:48:25;;;;;;;21.52;9.15;;;;;;;1.66;96.41;101872.47;5090268;28;20036;-75
2022/04/04 00:50:50;;;;;;;14.80;8.35;;;;;;;1.66;96.55;101862.81;5072193;28;20028;-76
2022/04/04 00:53:16;;;;;;;18.63;8.43;;;;;;;1.66;96.76;101860.19;5089930;28;20028;-77
2022/04/04 00:55:42;;;;;;;14.85;8.25;;;;;;;1.70;96.76;101848.69;5090423;28;20456;-75
2022/04/04 00:58:08;;;;;;;19.67;8.82;;;;;;;1.78;96.99;101848.38;5092659;28;20043;-74
2022/04/04 01:00:34;;;;;;;14.70;6.85;;;;;;;1.79;97.07;101842.19;5074306;28;20086;-75
2022/04/04 01:02:59;;;;;;;17.60;7.28;;;;;;;1.82;97.00;101841.22;5092667;28;20445;-74
2022/04/04 01:05:25;;;;;;;12.95;6.65;;;;;;;1.89;97.45;101829.59;5092524;28;20020;-74
2022/04/04 01:07:51;;;;;;;14.10;6.38;;;;;;;2.02;97.30;101817.72;5091135;28;20426;-75
2022/04/04 01:10:16;;;;;;;12.77;6.72;;;;;;;2.07;97.21;101826.25;5089947;28;20432;-77
2022/04/04 01:12:52;;;;;;;13.20;6.38;;;;;;;2.14;96.88;101811.13;5090074;28;20036;-75
2022/04/04 01:15:18;;;;;;;13.60;6.28;;;;;;;2.17;96.33;101813.63;5090042;28;20093;-77
2022/04/04 01:17:45;;;;;;;13.65;6.13;;;;;;;2.22;96.24;101809.03;5090103;28;20028;-75
2022/04/04 01:20:11;;;;;;;15.68;6.22;;;;;;;2.33;96.10;101802.50;5071745;28;20032;-77
2022/04/04 01:22:36;;;;;;;13.75;6.25;;;;;;;2.40;95.83;101804.81;5089281;28;20039;-76
2022/04/04 01:25:05;;;;;;;18.13;6.57;;;;;;;2.39;95.72;101797.88;5071713;28;20039;-76
2022/04/04 01:27:31;;;;;;;16.98;5.82;;;;;;;2.39;95.57;101791.72;5089637;28;20153;-76
2022/04/04 01:29:56;;;;;;;22.98;7.50;;;;;;;2.41;95.80;101788.13;5089409;28;20483;-77
2022/04/04 01:32:22;;;;;;;15.05;6.22;;;;;;;2.43;96.33;101786.31;5089362;28;20044;-77
2022/04/04 01:34:47;;;;;;;15.25;7.20;;;;;;;2.47;96.72;101777.38;5054965;28;20490;-76
2022/04/04 01:37:12;;;;;;;21.90;8.40;;;;;;;2.56;96.69;101772.66;5089506;28;20173;-75
2022/04/04 01:39:38;;;;;;;12.95;6.43;;;;;;;2.58;96.50;101765.56;5070639;28;20934;-75
2022/04/04 01:42:04;;;;;;;18.90;6.72;;;;;;;2.59;96.39;101757.59;5089684;28;20093;-76
2022/04/04 01:44:31;;;;;;;13.95;6.63;;;;;;;2.63;96.60;101750.47;5089092;28;20111;-76
2022/04/04 01:46:56;;;;;;;18.73;7.22;;;;;;;2.65;96.46;101752.09;5089757;28;20060;-76
2022/04/04 01:49:22;;;;;;;14.48;7.18;;;;;;;2.64;96.56;101745.16;5088769;28;20060;-79
2022/04/04 01:51:47;;;;;;;14.10;7.75;;;;;;;2.61;96.35;101740.03;5089171;28;20031;-77
2022/04/04 01:54:13;;;;;;;20.63;7.93;;;;;;;2.62;96.46;101735.63;5071425;28;20074;-75
2022/04/04 01:56:40;;;;;;;15.43;8.25;;;;;;;2.70;96.74;101737.91;5070408;28;20028;-75
2022/04/04 01:59:06;;;;;;;17.23;8.60;;;;;;;2.74;96.99;101732.44;5089063;28;20076;-76
2022/04/04 02:01:34;;;;;;;17.33;8.13;;;;;;;2.76;96.77;101720.13;5070358;28;20039;-76
2022/04/04 02:04:01;;;;;;;17.98;8.45;;;;;;;2.79;97.00;101719.09;5089173;28;20032;-76
2022/04/04 02:06:27;;;;;;;21.98;8.82;;;;;;;2.82;96.72;101709.31;5088786;28;20104;-78
2022/04/04 02:08:53;;;;;;;18.52;9.27;;;;;;;2.82;96.60;101703.19;5070490;28;20351;-76
2022/04/04 02:11:20;;;;;;;18.50;9.32;;;;;;;2.81;96.47;101694.47;5089227;28;20032;-76
2022/04/04 02:13:46;;;;;;;21.58;8.77;;;;;;;2.88;96.71;101700.31;5088429;28;20502;-76
2022/04/04 02:16:11;;;;;;;16.63;8.90;;;;;;;2.89;96.59;101686.22;5088927;28;20070;-76
2022/04/04 02:18:37;;;;;;;18.65;9.27;;;;;;;2.99;96.47;101678.81;5088528;28;20162;-76
2022/04/04 02:21:05;;;;;;;21.23;8.90;;;;;;;3.00;96.13;101678.72;5089004;28;20115;-76
2022/04/04 02:23:31;;;;;;;17.38;8.63;;;;;;;3.00;95.75;101676.09;5088477;28;20032;-75
2022/04/04 02:25:57;;;;;;;17.52;8.15;;;;;;;3.02;95.79;101675.19;5089036;28;20032;-75
2022/04/04 02:28:23;;;;;;;20.85;8.80;;;;;;;3.07;95.38;101660.88;5070825;28;20032;-76
2022/04/04 02:30:50;;;;;;;20.80;8.68;;;;;;;3.12;95.24;101656.28;5066971;28;20404;-76
2022/04/04 02:33:16;;;;;;;17.92;8.60;;;;;;;3.23;95.12;101653.16;5069316;28;20025;-76
2022/04/04 02:35:42;;;;;;;18.40;8.07;;;;;;;3.29;94.58;101654.66;5068241;28;20110;-77
2022/04/04 02:38:07;;;;;;;18.05;7.75;;;;;;;3.34;94.04;101645.63;5069190;28;20472;-76
2022/04/04 02:40:34;;;;;;;17.25;8.15;;;;;;;3.41;93.34;101638.25;5068584;28;20465;-77
2022/04/04 02:43:00;;;;;;;17.45;7.55;;;;;;;3.46;92.78;101627.53;5067560;28;20032;-76
2022/04/04 02:45:26;;;;;;;17.38;7.43;;;;;;;3.46;92.19;101620.50;5068856;28;20037;-76
2022/04/04 02:47:51;;;;;;;16.63;7.82;;;;;;;3.53;92.05;101613.16;5066525;28;20040;-75
2022/04/04 02:50:17;;;;;;;12.93;7.00;;;;;;;3.62;92.13;101603.94;5068509;28;20374;-75
2022/04/04 02:52:43;;;;;;;14.43;7.88;;;;;;;3.66;91.47;101595.81;5067900;28;20163;-75
2022/04/04 02:57:54;;;;;;;14.27;7.03;;;;;;;3.83;89.59;101575.72;5068109;28;20147;-75
2022/04/04 03:00:20;;;;;;;20.38;6.50;;;;;;;3.95;87.45;101579.50;5068750;28;20140;-76
2022/04/04 03:02:47;;;;;;;12.18;6.20;;;;;;;4.01;86.56;101558.97;5067812;28;20088;-76
2022/04/04 03:05:13;;;;;;;12.30;6.00;;;;;;;4.04;85.26;101561.44;5068470;28;20063;-76
2022/04/04 03:07:39;;;;;;;16.75;5.97;;;;;;;4.11;83.80;101556.72;5067859;28;20040;-76
2022/04/04 03:10:05;;;;;;;12.70;5.90;;;;;;;4.19;81.21;101545.78;5068174;28;20112;-75
2022/04/04 03:12:31;;;;;;;17.30;6.43;;;;;;;4.30;79.48;101540.81;5053631;28;20088;-78
2022/04/04 03:14:56;;;;;;;13.07;4.90;;;;;;;4.45;76.60;101536.50;5072200;28;20486;-76
2022/04/04 03:17:21;;;;;;;13.82;5.53;;;;;;;4.55;74.76;101540.34;5072318;28;20039;-76
2022/04/04 03:19:47;;;;;;;13.68;5.72;;;;;;;4.65;73.71;101534.56;5069960;28;20033;-76
2022/04/04 03:22:13;;;;;;;9.65;4.60;;;;;;;4.74;72.49;101537.53;5072191;28;20052;-76
2022/04/04 03:24:39;;;;;;;13.60;4.47;;;;;;;4.80;71.52;101528.44;5071792;28;20110;-76
2022/04/04 03:27:04;;;;;;;11.13;4.55;;;;;;;4.88;71.20;101520.97;5072144;28;20036;-76
2022/04/04 03:29:30;;;;;;;8.98;4.65;;;;;;;4.86;71.41;101512.28;5077506;28;20102;-75
2022/04/04 03:31:55;;;;;;;8.60;4.20;;;;;;;4.86;71.29;101509.63;5091942;28;20365;-76
2022/04/04 03:34:22;;;;;;;9.70;4.45;;;;;;;4.86;70.84;101501.72;5092028;28;20032;-76
2022/04/04 03:36:47;;;;;;;11.32;4.38;;;;;;;4.94;69.75;101498.66;5091692;28;20135;-76
2022/04/04 03:39:16;;;;;;;10.30;4.50;;;;;;;4.99;69.31;101494.00;5092373;28;20084;-74
2022/04/04 03:41:43;;;;;;;11.48;3.95;;;;;;;5.03;68.91;101489.38;5091632;28;20059;-75
2022/04/04 03:44:09;;;;;;;8.32;4.05;;;;;;;5.03;69.53;101484.09;5092199;28;20120;-75
2022/04/04 03:46:34;;;;;;;16.38;4.05;;;;;;;5.04;68.81;101469.97;5091804;28;20143;-78
2022/04/04 03:49:00;;;;;;;12.27;4.00;;;;;;;5.10;67.75;101456.44;5091581;28;20111;-75
2022/04/04 03:51:25;;;;;;;11.27;4.40;;;;;;;5.17;67.22;101455.16;5092104;28;20437;-75
2022/04/04 03:53:50;;;;;;;8.05;3.95;;;;;;;5.23;66.58;101464.50;5091535;28;20319;-75
2022/04/04 03:56:16;;;;;;;9.90;3.90;;;;;;;5.24;66.62;101439.81;5057182;28;20487;-76
2022/04/04 03:58:41;;;;;;;11.93;4.18;;;;;;;5.23;66.85;101440.75;5073173;28;20478;-75
2022/04/04 04:01:07;;;;;;;8.85;3.80;;;;;;;5.24;66.32;101437.16;5091838;28;20448;-76
2022/04/04 04:03:34;;;;;;;15.00;4.80;;;;;;;5.21;67.14;101429.44;5091639;28;20180;-75
2022/04/04 04:06:11;;;;;;;21.95;5.07;;;;;;;5.24;66.81;101424.84;5091513;28;20039;-74
2022/04/04 04:08:39;;;;;;;7.75;4.03;;;;;;;5.22;67.37;101421.41;5092008;28;20465;-78
2022/04/04 04:11:05;;;;;;;9.27;4.20;;;;;;;5.16;67.55;101419.16;5091607;28;20493;-75
2022/04/04 04:13:31;;;;;;;13.18;4.38;;;;;;;5.17;67.14;101418.22;5073516;28;20070;-75
2022/04/04 04:15:58;;;;;;;13.45;4.43;;;;;;;5.20;67.12;101411.91;5091030;28;20067;-75
2022/04/04 04:18:24;;;;;;;8.32;4.72;;;;;;;5.23;67.15;101411.75;5073375;28;20509;-76
2022/04/04 04:20:50;;;;;;;8.23;4.40;;;;;;;5.26;66.98;101390.44;5091083;28;20181;-76
2022/04/04 04:23:16;;;;;;;13.45;5.18;;;;;;;5.28;67.13;101404.38;5091122;28;20158;-75
2022/04/04 04:25:41;;;;;;;11.75;4.85;;;;;;;5.32;67.11;101392.72;5091016;28;20024;-76
2022/04/04 04:28:07;;;;;;;15.98;5.57;;;;;;;5.31;67.67;101391.00;5091300;28;20039;-74
2022/04/04 04:30:33;;;;;;;10.18;4.97;;;;;;;5.32;68.10;101382.16;5091453;28;20056;-75
2022/04/04 04:32:59;;;;;;;16.95;4.88;;;;;;;5.29;68.50;101377.91;5090257;28;20036;-75
2022/04/04 04:35:24;;;;;;;15.70;5.45;;;;;;;5.34;68.38;101367.06;5091091;28;20048;-74
2022/04/04 04:37:50;;;;;;;14.13;5.65;;;;;;;5.37;68.70;101361.59;5090611;28;20107;-76
2022/04/04 04:40:16;;;;;;;12.45;5.55;;;;;;;5.36;68.72;101354.66;5090890;28;20066;-75
2022/04/04 04:42:43;;;;;;;11.32;5.65;;;;;;;5.38;68.94;101347.47;5090698;28;20078;-78
2022/04/04 04:45:10;;;;;;;19.05;6.10;;;;;;;5.39;69.36;101343.91;5091031;28;20040;-76
2022/04/04 04:47:35;;;;;;;25.40;5.50;;;;;;;5.39;69.56;101332.47;5072378;28;20471;-75
2022/04/04 04:50:02;;;;;;;12.90;5.50;;;;;;;5.41;70.02;101341.19;5090363;28;20024;-76
2022/04/04 04:52:28;;;;;;;15.13;5.60;;;;;;;5.42;70.33;101333.16;5090871;28;20047;-76
2022/04/04 04:54:53;;;;;;;11.35;5.78;;;;;;;5.34;71.14;101321.38;5090020;28;20337;-76
2022/04/04 04:57:20;;;;;;;16.25;6.13;;;;;;;5.29;72.21;101321.66;5090796;28;20060;-75
2022/04/04 04:59:46;;;;;;;15.52;6.32;;;;;;;5.25;73.55;101304.31;5090070;28;20365;-77
2022/04/04 05:02:11;;;;;;;16.58;6.55;;;;;;;5.25;74.13;101310.41;5090435;28;20032;-75
2022/04/04 05:04:37;;;;;;;26.05;7.65;;;;;;;5.21;74.93;101294.88;5090997;28;20383;-76
2022/04/04 05:07:03;;;;;;;14.82;6.25;;;;;;;5.20;75.42;101301.13;5090118;28;20837;-76
2022/04/04 05:09:29;;;;;;;17.75;6.82;;;;;;;5.21;75.73;101284.31;5072266;28;20032;-76
2022/04/04 05:11:54;;;;;;;16.67;6.72;;;;;;;5.23;76.14;101274.53;5090156;28;20486;-75
2022/04/04 05:14:20;;;;;;;16.45;6.43;;;;;;;5.22;76.13;101284.22;5090636;28;20036;-74
2022/04/04 05:16:47;;;;;;;14.20;7.40;;;;;;;5.23;76.69;101287.72;5071699;28;20111;-78
2022/04/04 05:19:13;;;;;;;15.57;7.18;;;;;;;5.19;76.88;101279.13;5090337;28;20104;-74
2022/04/04 05:21:40;;;;;;;15.65;6.88;;;;;;;5.19;77.30;101270.38;5090261;28;20024;-75
2022/04/04 05:24:06;;;;;;;22.23;7.53;;;;;;;5.21;77.22;101265.84;5090135;28;20138;-74
2022/04/04 05:26:32;;;;;;;11.60;7.53;;;;;;;5.20;77.61;101258.91;5072082;28;20116;-75
2022/04/04 05:28:57;;;;;;;17.50;7.75;;;;;;;5.16;78.34;101255.59;5071143;28;20172;-74
2022/04/04 05:31:23;;;;;;;17.50;8.20;;;;;;;5.15;78.65;101250.41;5071883;28;20036;-75
2022/04/04 05:33:49;;;;;;;19.13;8.70;;;;;;;5.14;79.23;101246.94;5088564;28;20039;-78
2022/04/04 05:36:14;;;;;;;21.50;8.75;;;;;;;5.10;80.03;101248.06;5090003;28;20424;-75
2022/04/04 05:38:40;;;;;;;21.70;10.05;;;;;;;5.01;81.38;101238.91;5072147;28;20050;-74
2022/04/04 05:41:05;;;;;;;19.05;9.18;;;;;;;4.93;82.44;101244.66;5089566;28;20432;-72
2022/04/04 05:43:31;;;;;;;13.52;9.02;;;;;;;4.85;83.08;101241.63;5089706;28;20032;-73
2022/04/04 05:45:56;;;;;;;17.98;9.93;;;;;;;4.73;85.31;101235.31;5089204;28;20032;-75
2022/04/04 05:48:25;;;;;;;22.25;10.52;;;;;;;4.64;86.49;101245.53;5089580;28;20173;-76
2022/04/04 05:50:51;;;;;;;18.25;9.75;;;;;;;4.57;88.11;101240.63;5089124;28;20064;-77
2022/04/04 05:53:16;;;;;;;23.67;10.13;;;;;;;4.53;89.07;101235.63;5089949;28;20124;-74
2022/04/04 05:55:42;;;;;;;26.10;10.82;;;;;;;4.49;89.52;101240.22;5089819;28;20054;-73
2022/04/04 05:58:07;;;;;;;21.80;8.07;;;;;;;4.47;88.74;101236.84;5088931;28;20437;-74
2022/04/04 06:00:32;;;;;;;12.85;5.88;;;;;;;4.43;87.79;101239.75;5071290;28;20051;-74
2022/04/04 06:02:58;;;;;;;9.80;4.07;;;;;;;4.36;83.98;101215.53;5037254;28;20032;-74
2022/04/04 06:05:23;;;;;;;12.93;3.97;;;;;;;4.28;83.35;101215.97;5054272;28;20032;-75
2022/04/04 06:07:48;;;;;;;11.90;4.28;;;;;;;4.20;84.33;101219.06;5071384;28;20083;-75
2022/04/04 06:10:15;;;;;;;9.93;3.47;;;;;;;4.18;83.42;101209.53;5088503;28;20039;-73
2022/04/04 06:12:43;;;;;;;8.65;3.00;;;;;;;4.18;82.56;101199.88;5089517;28;20198;-73
2022/04/04 06:15:09;;;;;;;9.38;3.70;;;;;;;4.22;81.89;101211.06;5088742;28;20047;-74
2022/04/04 06:17:35;;;;;;;5.93;2.95;;;;;;;4.31;80.49;101196.53;5089016;28;20032;-73
2022/04/04 06:20:00;;;;;;;6.47;3.00;;;;;;;4.33;81.13;101179.69;5089009;28;20044;-73
2022/04/04 06:22:26;;;;;;;9.68;3.63;;;;;;;4.38;80.18;101188.16;5070779;28;20028;-74
2022/04/04 06:24:51;;;;;;;7.32;3.00;;;;;;;4.46;79.95;101178.97;5054343;28;20035;-73
2022/04/04 06:27:17;;;;;;;13.65;3.70;;;;;;;4.48;80.44;101191.13;5088807;28;20024;-72
2022/04/04 06:29:43;;;;;;;9.30;4.25;;;;;;;4.50;80.77;101176.03;5088700;28;20052;-73
2022/04/04 06:32:11;;;;;;;12.68;3.20;;;;;;;4.50;81.10;101176.03;5070347;28;20043;-74
2022/04/04 06:34:37;;;;;;;13.48;4.00;;;;;;;4.48;81.49;101177.06;5089273;28;20074;-74
2022/04/04 06:37:04;;;;;;;14.38;3.40;;;;;;;4.49;82.27;101176.13;5088701;28;20131;-73
2022/04/04 06:39:30;;;;;;;11.05;3.40;;;;;;;4.51;82.59;101182.16;5089615;28;20508;-73
2022/04/04 06:41:56;;;;;;;11.00;3.42;;;;;;;4.53;81.12;101156.56;5088377;28;20123;-77
2022/04/04 06:44:22;;;;;;;8.13;3.35;;;;;;;4.53;80.75;101153.94;5089208;28;20134;-73
2022/04/04 06:46:47;;;;;;;10.55;3.38;;;;;;;4.57;80.31;101158.09;5074883;28;20194;-72
2022/04/04 06:49:13;;;;;;;9.35;3.30;;;;;;;4.60;80.21;101142.09;5093018;28;20104;-74
2022/04/04 06:51:38;;;;;;;8.52;3.30;;;;;;;4.57;81.11;101158.09;5054366;28;20032;-71
2022/04/04 06:54:05;;;;;;;14.25;4.03;;;;;;;4.54;80.97;101156.47;5089961;28;20057;-73
2022/04/04 06:56:31;;;;;;;14.38;3.65;;;;;;;4.49;82.50;101153.25;5090497;28;20028;-73
2022/04/04 06:58:57;;;;;;;12.63;3.53;;;;;;;4.41;84.80;101139.72;5090260;28;20043;-76
2022/04/04 07:01:23;;;;;;;9.82;3.55;;;;;;;4.31;85.56;101151.72;5090471;28;20078;-74
2022/04/04 07:03:48;;;;;;;14.60;4.45;;;;;;;4.26;86.67;101159.06;5089859;28;20044;-73
2022/04/04 07:06:15;;;;;;;15.20;4.53;;;;;;;4.18;87.60;101139.28;5089756;28;20028;-75
2022/04/04 07:08:41;;;;;;;19.00;4.25;;;;;;;4.10;88.40;101143.31;5072445;28;20036;-77
2022/04/04 07:11:10;;;;;;;11.45;4.65;;;;;;;4.03;90.12;101129.63;5089925;28;20661;-75
2022/04/04 07:13:36;;;;;;;13.40;4.63;;;;;;;3.95;90.43;101131.88;5055793;28;20037;-75
2022/04/04 07:16:01;;;;;;;12.68;4.50;;;;;;;3.85;91.10;101132.44;5089588;28;20028;-76
2022/04/04 07:18:26;;;;;;;13.32;4.63;;;;;;;3.78;92.26;101124.97;5090235;28;20119;-74
2022/04/04 07:20:52;;;;;;;11.55;4.50;;;;;;;3.69;93.57;101098.22;5090467;28;20037;-73
2022/04/04 07:23:17;;;;;;;15.98;4.88;;;;;;;3.67;93.54;101099.25;5089628;28;20055;-77
2022/04/04 07:25:43;;;;;;;17.52;4.90;;;;;;;3.67;94.02;101104.50;5090284;28;20210;-75
2022/04/04 07:28:08;;;;;;;10.90;5.00;;;;;;;3.66;95.34;101090.53;5070658;28;20035;-74
2022/04/04 07:30:34;;;;;;;11.40;5.22;;;;;;;3.67;96.03;101080.81;5070826;28;20140;-76
2022/04/04 07:33:01;;;;;;;17.63;5.60;;;;;;;3.70;96.28;101084.16;5071854;28;20117;-75
2022/04/04 07:35:27;;;;;;;23.58;6.65;;;;;;;3.71;96.75;101077.09;5089391;28;20036;-75
2022/04/04 07:37:53;;;;;;;17.40;6.30;;;;;;;3.70;97.33;101068.34;5089538;28;20090;-75
2022/04/04 07:40:20;;;;;;;14.10;6.75;;;;;;;3.66;97.97;101068.63;5089734;28;20055;-74
2022/04/04 07:42:46;;;;;;;12.18;6.10;;;;;;;3.68;98.65;101064.09;5089623;28;20035;-75
2022/04/04 07:45:16;;;;;;;19.92;6.07;;;;;;;3.69;99.05;101061.38;5088747;28;20032;-74
2022/04/04 07:47:43;;;;;;;19.58;6.10;;;;;;;3.71;99.52;101062.13;5089674;28;20152;-74
2022/04/04 07:50:11;;;;;;;16.40;5.80;;;;;;;3.73;99.78;101053.31;5088738;28;20110;-73
2022/04/04 07:52:37;;;;;;;16.00;5.75;;;;;;;3.77;99.01;101036.41;5089813;28;20105;-74
2022/04/04 07:55:03;;;;;;;20.35;5.93;;;;;;;3.77;98.23;101055.66;5089163;28;20431;-77
2022/04/04 07:57:28;;;;;;;14.25;5.93;;;;;;;3.78;98.14;101046.00;5069995;28;20150;-73
2022/04/04 07:59:54;;;;;;;16.95;5.75;;;;;;;3.78;97.71;101044.22;5089264;28;20073;-75
2022/04/04 08:02:20;;;;;;;18.70;6.68;;;;;;;3.80;98.05;101038.88;5088238;28;20083;-74
2022/04/04 08:04:45;;;;;;;12.65;5.50;;;;;;;3.79;98.33;101035.38;5089304;28;20036;-74
2022/04/04 08:07:12;;;;;;;12.95;5.30;;;;;;;3.77;98.20;101044.31;5088539;28;20035;-75
2022/04/04 08:09:37;;;;;;;15.32;5.60;;;;;;;3.76;98.14;101032.06;5088953;28;20063;-75
2022/04/04 08:12:03;;;;;;;11.65;5.47;;;;;;;3.73;98.52;101030.47;5089166;28;20067;-74
2022/04/04 08:14:28;;;;;;;17.48;5.57;;;;;;;3.70;98.96;101028.88;5088297;28;20040;-74
2022/04/04 08:16:53;;;;;;;20.08;6.25;;;;;;;3.70;99.59;101020.97;5089172;28;20035;-76
2022/04/04 08:19:19;;;;;;;18.30;6.63;;;;;;;3.70;100.00;101031.50;5053267;28;20036;-74
2022/04/04 08:21:45;;;;;;;20.70;5.90;;;;;;;3.68;100.00;101025.47;5088629;28;20512;-75
2022/04/04 08:24:13;;;;;;;20.52;7.07;;;;;;;3.69;100.00;101021.91;5088098;28;20114;-74
2022/04/04 08:26:39;;;;;;;13.88;6.10;;;;;;;3.70;100.00;101026.25;5088719;28;20028;-75
2022/04/04 08:29:05;;;;;;;24.95;6.63;;;;;;;3.72;100.00;101018.25;5088388;28;20172;-74
2022/04/04 08:31:31;;;;;;;21.58;6.90;;;;;;;3.75;100.00;101015.44;5087975;28;20151;-74
2022/04/04 08:33:57;;;;;;;18.58;7.13;;;;;;;3.77;100.00;101018.81;5088786;28;20130;-74
2022/04/04 08:36:22;;;;;;;14.38;6.38;;;;;;;3.80;100.00;101002.84;5069762;28;20080;-75
2022/04/04 08:38:48;;;;;;;20.50;6.70;;;;;;;3.81;100.00;101006.34;5088360;28;20067;-74
2022/04/04 08:41:13;;;;;;;19.45;5.93;;;;;;;3.85;100.00;100999.94;5069349;28;20065;-74
2022/04/04 08:43:44;;;;;;;21.05;6.65;;;;;;;3.89;100.00;100990.91;5088232;28;20036;-75
2022/04/04 08:46:10;;;;;;;16.45;6.72;;;;;;;3.92;100.00;100982.00;5087792;28;20441;-75
2022/04/04 08:48:38;;;;;;;16.45;6.15;;;;;;;3.96;100.00;100979.09;5088208;28;20062;-76
2022/04/04 08:51:07;;;;;;;23.55;7.25;;;;;;;3.99;100.00;100964.91;5086030;28;20237;-74
2022/04/04 08:53:35;;;;;;;19.25;6.10;;;;;;;4.02;100.00;100976.06;5086462;28;20112;-75
2022/04/04 08:56:00;;;;;;;19.13;6.30;;;;;;;4.09;100.00;100958.13;5090311;28;20101;-74
2022/04/04 08:58:26;;;;;;;20.73;6.30;;;;;;;4.10;100.00;100975.59;5071525;28;20032;-74
2022/04/04 09:00:52;;;;;;;14.75;5.57;;;;;;;4.14;100.00;100971.00;5072423;28;20133;-74
2022/04/04 09:03:22;;;;;;;18.35;5.93;;;;;;;4.17;100.00;100971.66;5090226;28;20375;-74
2022/04/04 09:05:52;;;;;;;20.08;5.10;;;;;;;4.22;100.00;100966.97;5090516;28;20093;-74
2022/04/04 09:08:21;;;;;;;20.63;5.53;;;;;;;4.26;100.00;100957.09;5089149;28;20531;-75
2022/04/04 09:10:47;;;;;;;13.98;5.05;;;;;;;4.31;100.00;100944.47;5090243;28;20032;-76
2022/04/04 09:13:18;;;;;;;16.13;5.60;;;;;;;4.33;100.00;100958.41;5089969;28;20031;-78
2022/04/04 09:15:56;;;;;;;21.88;5.30;;;;;;;4.41;100.00;100944.75;5090417;28;20063;-74
2022/04/04 09:18:37;;;;;;;17.73;5.55;;;;;;;4.44;100.00;100939.28;5089321;28;20111;-74
2022/04/04 09:21:08;;;;;;;27.42;6.25;;;;;;;4.46;100.00;100934.75;5090528;28;20047;-75
2022/04/04 09:23:35;;;;;;;12.82;4.63;;;;;;;4.48;100.00;100930.25;5089375;28;20028;-75
2022/04/04 09:26:01;;;;;;;14.18;5.18;;;;;;;4.52;100.00;100931.75;5090166;28;20115;-75
2022/04/04 09:28:27;;;;;;;19.80;4.60;;;;;;;4.55;100.00;100926.28;5089860;28;20024;-73
2022/04/04 09:31:07;;;;;;;14.48;4.20;;;;;;;4.58;100.00;100918.16;5089883;28;20063;-73
2022/04/04 09:33:40;;;;;;;15.05;4.13;;;;;;;4.57;100.00;100932.28;5089510;28;20028;-74
2022/04/04 09:36:07;;;;;;;15.25;4.32;;;;;;;4.57;100.00;100916.47;5090024;28;20032;-75
2022/04/04 09:38:34;;;;;;;21.17;4.75;;;;;;;4.56;100.00;100927.09;5089322;28;20051;-76
2022/04/04 09:41:18;;;;;;;14.55;3.88;;;;;;;4.58;100.00;100922.56;5090126;28;20163;-75
2022/04/04 09:44:00;;;;;;;20.08;4.68;;;;;;;4.56;100.00;100906.88;5089868;28;20081;-75
2022/04/04 09:46:33;;;;;;;18.45;4.30;;;;;;;4.59;100.00;100916.38;5088970;28;20036;-74
2022/04/04 09:49:05;;;;;;;21.88;4.22;;;;;;;4.59;100.00;100930.38;5090208;28;20020;-74
2022/04/04 09:51:46;;;;;;;14.40;4.25;;;;;;;4.59;100.00;100930.38;5089482;28;20031;-76
2022/04/04 09:54:20;;;;;;;17.38;3.53;;;;;;;4.58;100.00;100918.16;5090154;28;20380;-75
2022/04/04 09:56:47;;;;;;;18.20;3.80;;;;;;;4.59;100.00;100914.56;5089859;28;20059;-75
2022/04/04 09:59:15;;;;;;;23.00;5.07;;;;;;;4.63;100.00;100911.72;5090040;28;20128;-74
2022/04/04 10:01:43;;;;;;;21.48;4.20;;;;;;;4.66;100.00;100906.25;5089647;28;20087;-74
2022/04/04 10:04:09;;;;;;;15.63;3.92;;;;;;;4.69;100.00;100888.47;5089608;28;20028;-75
2022/04/04 10:06:35;;;;;;;16.15;3.90;;;;;;;4.72;100.00;100890.06;5089349;28;20050;-75
2022/04/04 10:09:02;;;;;;;23.95;4.57;;;;;;;4.80;100.00;100886.94;5071431;28;20039;-74
2022/04/04 10:11:30;;;;;;;27.17;5.55;;;;;;;4.84;100.00;100884.00;5089225;28;20059;-74
2022/04/04 10:13:56;;;;;;;15.32;3.60;;;;;;;4.90;100.00;100872.19;5090139;28;20568;-73
2022/04/04 10:16:23;;;;;;;20.08;4.38;;;;;;;4.95;100.00;100885.91;5089330;28;20043;-74
2022/04/04 10:18:50;;;;;;;17.08;4.10;;;;;;;4.95;100.00;100875.38;5089779;28;20035;-74
2022/04/04 10:21:16;;;;;;;16.73;4.50;;;;;;;4.99;100.00;100871.59;5089643;28;20024;-75
2022/04/04 10:23:46;;;;;;;19.73;4.25;;;;;;;5.01;100.00;100868.84;5089554;28;20468;-75
2022/04/04 10:26:12;;;;;;;16.08;3.45;;;;;;;5.03;100.00;100857.25;5089706;28;20063;-73
2022/04/04 10:28:39;;;;;;;21.58;3.55;;;;;;;5.06;100.00;100854.41;5089219;28;20036;-75
2022/04/04 10:31:20;;;;;;;18.10;3.50;;;;;;;5.08;100.00;100863.06;5089176;28;20088;-74
2022/04/04 10:33:53;;;;;;;11.07;2.78;;;;;;;5.08;100.00;100865.69;5070656;28;20119;-75
2022/04/04 10:36:25;;;;;;;19.73;3.75;;;;;;;5.15;100.00;100857.34;5089620;28;20027;-75
2022/04/04 10:38:55;;;;;;;13.40;3.55;;;;;;;5.17;100.00;100855.47;5089348;28;20024;-75
2022/04/04 10:41:25;;;;;;;20.30;3.88;;;;;;;5.23;100.00;100849.78;5089512;28;20044;-74
2022/04/04 10:43:53;;;;;;;12.43;2.90;;;;;;;5.29;100.00;100854.63;5089714;28;20160;-74
2022/04/04 10:46:20;;;;;;;13.75;2.85;;;;;;;5.31;100.00;100873.84;5070957;28;20028;-75
2022/04/04 10:48:51;;;;;;;11.10;3.40;;;;;;;5.33;100.00;100857.91;5088797;28;20550;-74
2022/04/04 10:51:27;;;;;;;15.98;3.10;;;;;;;5.36;100.00;100841.88;5089216;28;20039;-74
2022/04/04 10:54:00;;;;;;;16.70;3.25;;;;;;;5.36;100.00;100845.38;5089387;28;20039;-74
2022/04/04 10:56:31;;;;;;;11.55;2.88;;;;;;;5.36;100.00;100847.13;5089231;28;20096;-75
2022/04/04 10:59:14;;;;;;;12.85;2.42;;;;;;;5.37;100.00;100846.19;5089260;28;20035;-74
2022/04/04 11:01:45;;;;;;;9.85;2.72;;;;;;;5.37;100.00;100859.38;5070551;28;20503;-75
2022/04/04 11:04:23;;;;;;;10.23;2.50;;;;;;;5.38;100.00;100830.25;5089493;28;20445;-74
2022/04/04 11:09:47;;;;;;;6.47;2.38;;;;;;;5.46;100.00;100821.81;5089078;28;20059;-74
2022/04/04 11:12:15;;;;;;;8.45;2.30;;;;;;;5.47;100.00;100803.22;5089070;28;20062;-75
2022/04/04 11:14:42;;;;;;;12.88;2.50;;;;;;;5.49;100.00;100811.03;5088994;28;20235;-75
2022/04/04 11:17:23;;;;;;;10.20;2.15;;;;;;;5.53;100.00;100803.78;5089279;28;20032;-76
2022/04/04 11:19:57;;;;;;;7.53;3.30;;;;;;;5.60;100.00;100800.59;5088374;28;20036;-73
2022/04/04 11:22:24;;;;;;;6.50;1.90;;;;;;;5.65;100.00;100803.72;5089102;28;20044;-75
2022/04/04 11:24:53;;;;;;;13.00;2.47;;;;;;;5.70;100.00;100803.41;5088610;28;20032;-75
2022/04/04 11:27:21;;;;;;;9.00;2.15;;;;;;;5.71;100.00;100797.19;5089419;28;20039;-74
2022/04/04 11:29:47;;;;;;;7.32;1.98;;;;;;;5.74;100.00;100798.78;5089138;28;20035;-75